createdAt,value
2016-10-16T00:00:06.152Z,969.55
2016-10-16T00:01:06.112Z,969.57
2016-10-16T00:02:06.072Z,969.57
2016-10-16T00:03:06.031Z,969.56
2016-10-16T00:04:05.993Z,969.61
2016-10-16T00:05:05.954Z,969.6
2016-10-16T00:06:05.915Z,969.64
2016-10-16T00:07:05.874Z,969.62
2016-10-16T00:08:05.835Z,969.61
2016-10-16T00:09:05.794Z,969.62
2016-10-16T00:10:05.760Z,969.6
2016-10-16T00:11:05.719Z,969.63
2016-10-16T00:12:05.679Z,969.62
2016-10-16T00:13:05.639Z,969.6
2016-10-16T00:14:05.600Z,969.64
2016-10-16T00:15:05.560Z,969.63
2016-10-16T00:16:05.520Z,969.59
2016-10-16T00:17:05.481Z,969.65
2016-10-16T00:18:05.441Z,969.65
2016-10-16T00:19:05.404Z,969.65
2016-10-16T00:20:05.363Z,969.68
2016-10-16T00:21:05.326Z,969.7
2016-10-16T00:22:05.288Z,969.71
2016-10-16T00:23:05.246Z,969.69
2016-10-16T00:24:05.206Z,969.72
2016-10-16T00:25:05.167Z,969.73
2016-10-16T00:26:05.130Z,969.72
2016-10-16T00:27:05.090Z,969.72
2016-10-16T00:28:05.049Z,969.75
2016-10-16T00:29:05.010Z,969.73
2016-10-16T00:30:04.972Z,969.79
2016-10-16T00:31:04.932Z,969.75
2016-10-16T00:32:04.893Z,969.75
2016-10-16T00:33:04.853Z,969.72
2016-10-16T00:34:04.814Z,969.74
2016-10-16T00:35:04.775Z,969.75
2016-10-16T00:36:04.740Z,969.77
2016-10-16T00:37:04.699Z,969.8
2016-10-16T00:38:04.657Z,969.8
2016-10-16T00:39:04.622Z,969.83
2016-10-16T00:40:04.580Z,969.85
2016-10-16T00:41:04.548Z,969.9
2016-10-16T00:42:04.505Z,969.93
2016-10-16T00:43:04.460Z,969.93
2016-10-16T00:44:04.425Z,969.89
2016-10-16T00:45:04.385Z,969.95
2016-10-16T00:46:04.346Z,969.96
2016-10-16T00:47:04.307Z,969.94
2016-10-16T00:48:04.268Z,969.97
2016-10-16T00:49:04.229Z,969.9
2016-10-16T00:50:04.190Z,969.92
2016-10-16T00:51:04.152Z,969.94
2016-10-16T00:52:04.111Z,969.9
2016-10-16T00:53:04.074Z,969.91
2016-10-16T00:54:04.036Z,969.89
2016-10-16T00:55:03.994Z,969.86
2016-10-16T00:56:03.956Z,969.88
2016-10-16T00:57:03.921Z,969.91
2016-10-16T00:58:03.878Z,969.91
2016-10-16T00:59:03.839Z,969.86
2016-10-16T01:00:03.800Z,969.86
2016-10-16T01:01:03.763Z,969.86
2016-10-16T01:02:03.722Z,969.85
2016-10-16T01:03:03.682Z,969.84
2016-10-16T01:04:03.645Z,969.84
2016-10-16T01:05:03.605Z,969.86
2016-10-16T01:06:03.567Z,969.77
2016-10-16T01:07:03.526Z,969.77
2016-10-16T01:08:03.489Z,969.79
2016-10-16T01:09:03.450Z,969.74
2016-10-16T01:10:03.410Z,969.76
2016-10-16T01:11:03.370Z,969.75
2016-10-16T01:12:03.335Z,969.79
2016-10-16T01:13:03.297Z,969.79
2016-10-16T01:14:03.253Z,969.79
2016-10-16T01:15:03.218Z,969.8
2016-10-16T01:16:03.177Z,969.8
2016-10-16T01:17:03.139Z,969.8
2016-10-16T01:18:03.101Z,969.81
2016-10-16T01:19:03.061Z,969.87
2016-10-16T01:20:03.022Z,969.88
2016-10-16T01:21:02.987Z,969.84
2016-10-16T01:22:02.945Z,969.84
2016-10-16T01:23:02.906Z,969.83
2016-10-16T01:24:02.873Z,969.84
2016-10-16T01:25:02.828Z,969.81
2016-10-16T01:26:02.790Z,969.81
2016-10-16T01:27:02.752Z,969.83
2016-10-16T01:28:02.713Z,969.84
2016-10-16T01:29:02.672Z,969.85
2016-10-16T01:30:02.636Z,969.84
2016-10-16T01:31:02.599Z,969.79
2016-10-16T01:32:02.558Z,969.8
2016-10-16T01:33:02.518Z,969.78
2016-10-16T01:34:02.483Z,969.81
2016-10-16T01:35:02.443Z,969.79
2016-10-16T01:36:02.404Z,969.83
2016-10-16T01:37:02.366Z,969.8
2016-10-16T01:38:02.329Z,969.75
2016-10-16T01:39:02.291Z,969.75
2016-10-16T01:40:02.250Z,969.75
2016-10-16T01:41:02.212Z,969.73
2016-10-16T01:42:02.172Z,969.74
2016-10-16T01:43:02.135Z,969.7
2016-10-16T01:44:02.098Z,969.74
2016-10-16T01:45:02.060Z,969.76
2016-10-16T01:46:02.019Z,969.77
2016-10-16T01:47:01.979Z,969.75
2016-10-16T01:48:01.941Z,969.75
2016-10-16T01:49:01.904Z,969.74
2016-10-16T01:50:01.864Z,969.78
2016-10-16T01:51:01.827Z,969.81
2016-10-16T01:52:01.790Z,969.76
2016-10-16T01:53:01.750Z,969.81
2016-10-16T01:54:01.715Z,969.83
2016-10-16T01:55:01.674Z,969.83
2016-10-16T01:56:01.635Z,969.85
2016-10-16T01:57:01.596Z,969.85
2016-10-16T01:58:01.558Z,969.86
2016-10-16T01:59:01.521Z,969.88
2016-10-16T02:00:01.481Z,969.89
2016-10-16T02:01:01.443Z,969.86
2016-10-16T02:02:01.405Z,969.88
2016-10-16T02:03:01.365Z,969.86
2016-10-16T02:04:01.329Z,969.88
2016-10-16T02:05:01.288Z,969.91
2016-10-16T02:06:01.250Z,969.94
2016-10-16T02:07:01.214Z,969.9
2016-10-16T02:08:01.175Z,969.93
2016-10-16T02:09:01.137Z,969.97
2016-10-16T02:10:01.109Z,969.96
2016-10-16T02:11:01.059Z,969.97
2016-10-16T02:12:01.022Z,970.02
2016-10-16T02:13:00.983Z,970
2016-10-16T02:14:00.944Z,970.02
2016-10-16T02:15:00.906Z,969.96
2016-10-16T02:16:00.869Z,969.97
2016-10-16T02:17:00.830Z,969.97
2016-10-16T02:18:00.793Z,969.96
2016-10-16T02:19:00.753Z,969.98
2016-10-16T02:20:00.715Z,969.93
2016-10-16T02:21:00.677Z,969.97
2016-10-16T02:22:00.639Z,969.95
2016-10-16T02:23:00.600Z,969.95
2016-10-16T02:24:00.562Z,969.95
2016-10-16T02:25:00.526Z,969.95
2016-10-16T02:26:00.487Z,969.94
2016-10-16T02:27:00.448Z,969.9
2016-10-16T02:28:00.411Z,969.93
2016-10-16T02:29:00.373Z,969.9
2016-10-16T02:30:00.333Z,969.95
2016-10-16T02:31:00.296Z,969.93
2016-10-16T02:32:00.258Z,969.89
2016-10-16T02:33:00.221Z,969.95
2016-10-16T02:34:00.183Z,969.92
2016-10-16T02:35:00.144Z,969.91
2016-10-16T02:36:00.105Z,969.89
2016-10-16T02:37:00.066Z,969.91
2016-10-16T02:38:00.028Z,969.87
2016-10-16T02:38:59.991Z,969.87
2016-10-16T02:39:59.954Z,969.84
2016-10-16T02:40:59.915Z,969.85
2016-10-16T02:41:59.880Z,969.85
2016-10-16T02:42:59.839Z,969.88
2016-10-16T02:43:59.801Z,969.86
2016-10-16T02:44:59.763Z,969.85
2016-10-16T02:45:59.725Z,969.82
2016-10-16T02:46:59.687Z,969.86
2016-10-16T02:47:59.648Z,969.83
2016-10-16T02:48:59.610Z,969.84
2016-10-16T02:49:59.571Z,969.82
2016-10-16T02:50:59.535Z,969.79
2016-10-16T02:51:59.497Z,969.76
2016-10-16T02:52:59.459Z,969.84
2016-10-16T02:53:59.420Z,969.77
2016-10-16T02:54:59.382Z,969.79
2016-10-16T02:55:59.345Z,969.78
2016-10-16T02:56:59.305Z,969.74
2016-10-16T02:57:59.270Z,969.77
2016-10-16T02:58:59.231Z,969.78
2016-10-16T02:59:59.191Z,969.77
2016-10-16T03:00:59.155Z,969.76
2016-10-16T03:01:59.118Z,969.76
2016-10-16T03:02:59.082Z,969.78
2016-10-16T03:03:59.043Z,969.79
2016-10-16T03:04:59.004Z,969.79
2016-10-16T03:05:58.964Z,969.83
2016-10-16T03:06:58.928Z,969.81
2016-10-16T03:07:58.889Z,969.82
2016-10-16T03:08:58.854Z,969.84
2016-10-16T03:09:58.810Z,969.85
2016-10-16T03:10:58.774Z,969.86
2016-10-16T03:11:58.738Z,969.87
2016-10-16T03:12:58.701Z,969.85
2016-10-16T03:13:58.662Z,969.84
2016-10-16T03:14:58.622Z,969.85
2016-10-16T03:15:58.586Z,969.86
2016-10-16T03:16:58.548Z,969.89
2016-10-16T03:17:58.511Z,969.89
2016-10-16T03:18:58.473Z,969.89
2016-10-16T03:19:58.433Z,969.85
2016-10-16T03:20:58.395Z,969.88
2016-10-16T03:21:58.357Z,969.88
2016-10-16T03:22:58.319Z,969.85
2016-10-16T03:23:58.282Z,969.88
2016-10-16T03:24:58.244Z,969.85
2016-10-16T03:25:58.206Z,969.89
2016-10-16T03:26:58.169Z,969.88
2016-10-16T03:27:58.134Z,969.92
2016-10-16T03:28:58.093Z,969.88
2016-10-16T03:29:58.054Z,969.94
2016-10-16T03:30:58.016Z,969.89
2016-10-16T03:31:57.977Z,969.9
2016-10-16T03:32:57.943Z,969.89
2016-10-16T03:33:57.901Z,969.96
2016-10-16T03:34:57.863Z,969.97
2016-10-16T03:35:57.826Z,970.02
2016-10-16T03:36:57.785Z,970.04
2016-10-16T03:37:57.748Z,970.07
2016-10-16T03:38:57.711Z,970.09
2016-10-16T03:39:57.672Z,970.09
2016-10-16T03:40:57.633Z,970.1
2016-10-16T03:41:57.596Z,970.1
2016-10-16T03:42:57.558Z,970.11
2016-10-16T03:43:57.518Z,970.14
2016-10-16T03:44:57.481Z,970.14
2016-10-16T03:45:57.443Z,970.18
2016-10-16T03:46:57.405Z,970.18
2016-10-16T03:47:57.366Z,970.24
2016-10-16T03:48:57.328Z,970.19
2016-10-16T03:49:57.290Z,970.22
2016-10-16T03:50:57.251Z,970.21
2016-10-16T03:51:57.214Z,970.23
2016-10-16T03:52:57.176Z,970.24
2016-10-16T03:53:57.138Z,970.23
2016-10-16T03:54:57.101Z,970.23
2016-10-16T03:55:57.061Z,970.24
2016-10-16T03:56:57.023Z,970.26
2016-10-16T03:57:56.987Z,970.23
2016-10-16T03:58:56.946Z,970.28
2016-10-16T03:59:56.909Z,970.23
2016-10-16T04:00:56.872Z,970.27
2016-10-16T04:01:56.833Z,970.27
2016-10-16T04:02:56.795Z,970.26
2016-10-16T04:03:56.757Z,970.27
2016-10-16T04:04:56.721Z,970.26
2016-10-16T04:05:56.682Z,970.26
2016-10-16T04:06:56.643Z,970.22
2016-10-16T04:07:56.606Z,970.29
2016-10-16T04:08:56.569Z,970.29
2016-10-16T04:09:56.529Z,970.33
2016-10-16T04:10:56.491Z,970.25
2016-10-16T04:11:56.453Z,970.33
2016-10-16T04:12:56.414Z,970.29
2016-10-16T04:13:56.378Z,970.3
2016-10-16T04:14:56.339Z,970.29
2016-10-16T04:15:56.301Z,970.26
2016-10-16T04:16:56.263Z,970.2
2016-10-16T04:17:56.234Z,970.23
2016-10-16T04:18:56.187Z,970.26
2016-10-16T04:19:56.150Z,970.21
2016-10-16T04:20:56.112Z,970.25
2016-10-16T04:21:56.073Z,970.22
2016-10-16T04:22:56.039Z,970.23
2016-10-16T04:23:55.997Z,970.25
2016-10-16T04:24:55.959Z,970.26
2016-10-16T04:25:55.924Z,970.22
2016-10-16T04:26:55.889Z,970.25
2016-10-16T04:27:55.846Z,970.28
2016-10-16T04:28:55.807Z,970.28
2016-10-16T04:29:55.769Z,970.26
2016-10-16T04:30:55.733Z,970.29
2016-10-16T04:31:55.694Z,970.32
2016-10-16T04:32:55.655Z,970.31
2016-10-16T04:33:55.620Z,970.29
2016-10-16T04:34:55.580Z,970.28
2016-10-16T04:35:55.542Z,970.26
2016-10-16T04:36:55.504Z,970.28
2016-10-16T04:37:55.467Z,970.28
2016-10-16T04:38:55.428Z,970.28
2016-10-16T04:39:55.393Z,970.28
2016-10-16T04:40:55.354Z,970.27
2016-10-16T04:41:55.317Z,970.27
2016-10-16T04:42:55.276Z,970.25
2016-10-16T04:43:55.240Z,970.25
2016-10-16T04:44:55.203Z,970.26
2016-10-16T04:45:55.164Z,970.31
2016-10-16T04:46:55.127Z,970.32
2016-10-16T04:47:55.088Z,970.3
2016-10-16T04:48:55.052Z,970.3
2016-10-16T04:49:55.012Z,970.29
2016-10-16T04:50:54.975Z,970.31
2016-10-16T04:51:54.939Z,970.32
2016-10-16T04:52:54.900Z,970.32
2016-10-16T04:53:54.860Z,970.33
2016-10-16T04:54:54.824Z,970.33
2016-10-16T04:55:54.786Z,970.33
2016-10-16T04:56:54.747Z,970.34
2016-10-16T04:57:54.712Z,970.33
2016-10-16T04:58:54.672Z,970.32
2016-10-16T04:59:54.634Z,970.34
2016-10-16T05:00:54.598Z,970.29
2016-10-16T05:01:54.557Z,970.29
2016-10-16T05:02:54.520Z,970.3
2016-10-16T05:03:54.483Z,970.35
2016-10-16T05:04:54.446Z,970.33
2016-10-16T05:05:54.406Z,970.39
2016-10-16T05:06:54.369Z,970.35
2016-10-16T05:07:54.331Z,970.36
2016-10-16T05:08:54.293Z,970.41
2016-10-16T05:09:54.254Z,970.33
2016-10-16T05:10:54.222Z,970.39
2016-10-16T05:11:54.180Z,970.36
2016-10-16T05:12:54.147Z,970.39
2016-10-16T05:13:54.104Z,970.42
2016-10-16T05:14:54.068Z,970.42
2016-10-16T05:15:54.029Z,970.42
2016-10-16T05:16:53.993Z,970.45
2016-10-16T05:17:53.954Z,970.44
2016-10-16T05:18:53.915Z,970.47
2016-10-16T05:19:53.877Z,970.46
2016-10-16T05:20:53.840Z,970.49
2016-10-16T05:21:53.802Z,970.45
2016-10-16T05:22:53.770Z,970.49
2016-10-16T05:23:53.727Z,970.51
2016-10-16T05:24:53.689Z,970.51
2016-10-16T05:25:53.652Z,970.48
2016-10-16T05:26:53.615Z,970.53
2016-10-16T05:27:53.577Z,970.54
2016-10-16T05:28:53.540Z,970.54
2016-10-16T05:29:53.501Z,970.57
2016-10-16T05:30:53.465Z,970.49
2016-10-16T05:31:53.426Z,970.52
2016-10-16T05:32:53.388Z,970.48
2016-10-16T05:33:53.351Z,970.51
2016-10-16T05:34:53.312Z,970.47
2016-10-16T05:35:53.275Z,970.47
2016-10-16T05:36:53.236Z,970.47
2016-10-16T05:37:53.199Z,970.47
2016-10-16T05:38:53.162Z,970.49
2016-10-16T05:39:53.128Z,970.5
2016-10-16T05:40:53.086Z,970.48
2016-10-16T05:41:53.049Z,970.51
2016-10-16T05:42:53.012Z,970.51
2016-10-16T05:43:52.974Z,970.49
2016-10-16T05:44:52.941Z,970.51
2016-10-16T05:45:52.898Z,970.5
2016-10-16T05:46:52.859Z,970.51
2016-10-16T05:47:52.823Z,970.54
2016-10-16T05:48:52.785Z,970.56
2016-10-16T05:49:52.747Z,970.54
2016-10-16T05:50:52.709Z,970.62
2016-10-16T05:51:52.670Z,970.6
2016-10-16T05:52:52.637Z,970.6
2016-10-16T05:53:52.595Z,970.61
2016-10-16T05:54:52.560Z,970.67
2016-10-16T05:55:52.521Z,970.67
2016-10-16T05:56:52.483Z,970.66
2016-10-16T05:57:52.444Z,970.67
2016-10-16T05:58:52.409Z,970.69
2016-10-16T05:59:52.369Z,970.72
2016-10-16T06:00:52.335Z,970.74
2016-10-16T06:01:52.294Z,970.74
2016-10-16T06:02:52.256Z,970.75
2016-10-16T06:03:52.218Z,970.76
2016-10-16T06:04:52.185Z,970.77
2016-10-16T06:05:52.143Z,970.78
2016-10-16T06:06:52.105Z,970.81
2016-10-16T06:07:52.077Z,970.79
2016-10-16T06:08:52.031Z,970.79
2016-10-16T06:09:51.994Z,970.81
2016-10-16T06:10:51.956Z,970.83
2016-10-16T06:11:51.917Z,970.85
2016-10-16T06:12:51.880Z,970.82
2016-10-16T06:13:51.842Z,970.86
2016-10-16T06:14:51.804Z,970.82
2016-10-16T06:15:51.767Z,970.85
2016-10-16T06:16:51.729Z,970.87
2016-10-16T06:17:51.692Z,970.89
2016-10-16T06:18:51.657Z,970.9
2016-10-16T06:19:51.617Z,970.96
2016-10-16T06:20:51.580Z,970.96
2016-10-16T06:21:51.542Z,970.96
2016-10-16T06:22:51.503Z,970.97
2016-10-16T06:23:51.467Z,970.96
2016-10-16T06:24:51.428Z,970.97
2016-10-16T06:25:51.391Z,970.99
2016-10-16T06:26:51.353Z,970.98
2016-10-16T06:27:51.316Z,971
2016-10-16T06:28:51.280Z,970.99
2016-10-16T06:29:51.239Z,971.02
2016-10-16T06:30:51.205Z,971.03
2016-10-16T06:31:51.166Z,971.04
2016-10-16T06:32:51.126Z,971.03
2016-10-16T06:33:51.089Z,971.06
2016-10-16T06:34:51.054Z,971.09
2016-10-16T06:35:51.013Z,971.09
2016-10-16T06:36:50.976Z,971.1
2016-10-16T06:37:50.938Z,971.12
2016-10-16T06:38:50.901Z,971.14
2016-10-16T06:39:50.864Z,971.13
2016-10-16T06:40:50.826Z,971.14
2016-10-16T06:41:50.789Z,971.13
2016-10-16T06:42:50.752Z,971.14
2016-10-16T06:43:50.715Z,971.12
2016-10-16T06:44:50.675Z,971.16
2016-10-16T06:45:50.639Z,971.16
2016-10-16T06:46:50.600Z,971.15
2016-10-16T06:47:50.561Z,971.17
2016-10-16T06:48:50.523Z,971.17
2016-10-16T06:49:50.487Z,971.2
2016-10-16T06:50:50.448Z,971.2
2016-10-16T06:51:50.411Z,971.21
2016-10-16T06:52:50.373Z,971.2
2016-10-16T06:53:50.343Z,971.23
2016-10-16T06:54:50.300Z,971.21
2016-10-16T06:55:50.261Z,971.2
2016-10-16T06:56:50.222Z,971.25
2016-10-16T06:57:50.184Z,971.24
2016-10-16T06:58:50.148Z,971.23
2016-10-16T06:59:50.113Z,971.24
2016-10-16T07:00:50.072Z,971.27
2016-10-16T07:01:50.036Z,971.31
2016-10-16T07:02:49.998Z,971.29
2016-10-16T07:03:49.962Z,971.34
2016-10-16T07:04:49.925Z,971.36
2016-10-16T07:05:49.885Z,971.37
2016-10-16T07:06:49.847Z,971.36
2016-10-16T07:07:49.813Z,971.4
2016-10-16T07:08:49.774Z,971.41
2016-10-16T07:09:49.738Z,971.45
2016-10-16T07:10:49.699Z,971.45
2016-10-16T07:11:49.660Z,971.4
2016-10-16T07:12:49.624Z,971.45
2016-10-16T07:13:49.588Z,971.42
2016-10-16T07:14:49.551Z,971.38
2016-10-16T07:15:49.512Z,971.39
2016-10-16T07:16:49.474Z,971.42
2016-10-16T07:17:49.438Z,971.41
2016-10-16T07:18:49.408Z,971.37
2016-10-16T07:19:49.362Z,971.44
2016-10-16T07:20:49.325Z,971.42
2016-10-16T07:21:49.288Z,971.46
2016-10-16T07:22:49.251Z,971.42
2016-10-16T07:23:49.213Z,971.46
2016-10-16T07:24:49.177Z,971.47
2016-10-16T07:25:49.139Z,971.47
2016-10-16T07:26:49.102Z,971.49
2016-10-16T07:27:49.064Z,971.51
2016-10-16T07:28:49.026Z,971.5
2016-10-16T07:29:48.989Z,971.53
2016-10-16T07:30:48.953Z,971.52
2016-10-16T07:31:48.914Z,971.53
2016-10-16T07:32:48.881Z,971.57
2016-10-16T07:33:48.840Z,971.5
2016-10-16T07:34:48.803Z,971.53
2016-10-16T07:35:48.766Z,971.55
2016-10-16T07:36:48.730Z,971.53
2016-10-16T07:37:48.691Z,971.47
2016-10-16T07:38:48.655Z,971.44
2016-10-16T07:39:48.621Z,971.47
2016-10-16T07:40:48.580Z,971.45
2016-10-16T07:41:48.543Z,971.44
2016-10-16T07:42:48.503Z,971.45
2016-10-16T07:43:48.468Z,971.4
2016-10-16T07:44:48.430Z,971.42
2016-10-16T07:45:48.400Z,971.43
2016-10-16T07:46:48.357Z,971.44
2016-10-16T07:47:48.320Z,971.46
2016-10-16T07:48:48.285Z,971.47
2016-10-16T07:49:48.246Z,971.47
2016-10-16T07:50:48.210Z,971.47
2016-10-16T07:51:48.173Z,971.46
2016-10-16T07:52:48.135Z,971.5
2016-10-16T07:53:48.099Z,971.49
2016-10-16T07:54:48.064Z,971.51
2016-10-16T07:55:48.024Z,971.54
2016-10-16T07:56:47.989Z,971.47
2016-10-16T07:57:47.951Z,971.49
2016-10-16T07:58:47.916Z,971.5
2016-10-16T07:59:47.878Z,971.52
2016-10-16T08:00:47.844Z,971.49
2016-10-16T08:01:47.806Z,971.49
2016-10-16T08:02:47.769Z,971.44
2016-10-16T08:03:47.730Z,971.49
2016-10-16T08:04:47.695Z,971.49
2016-10-16T08:05:47.659Z,971.5
2016-10-16T08:06:47.622Z,971.49
2016-10-16T08:07:47.585Z,971.48
2016-10-16T08:08:47.549Z,971.45
2016-10-16T08:09:47.513Z,971.5
2016-10-16T08:10:47.475Z,971.5
2016-10-16T08:11:47.440Z,971.48
2016-10-16T08:12:47.404Z,971.51
2016-10-16T08:13:47.368Z,971.49
2016-10-16T08:14:47.330Z,971.49
2016-10-16T08:15:47.294Z,971.51
2016-10-16T08:16:47.260Z,971.52
2016-10-16T08:17:47.220Z,971.54
2016-10-16T08:18:47.186Z,971.5
2016-10-16T08:19:47.150Z,971.53
2016-10-16T08:20:47.113Z,971.51
2016-10-16T08:21:47.076Z,971.55
2016-10-16T08:22:47.041Z,971.51
2016-10-16T08:23:47.007Z,971.47
2016-10-16T08:24:46.969Z,971.5
2016-10-16T08:25:46.932Z,971.5
2016-10-16T08:26:46.897Z,971.48
2016-10-16T08:27:46.859Z,971.52
2016-10-16T08:28:46.824Z,971.49
2016-10-16T08:29:46.787Z,971.51
2016-10-16T08:30:46.751Z,971.55
2016-10-16T08:31:46.718Z,971.53
2016-10-16T08:32:46.679Z,971.53
2016-10-16T08:33:46.642Z,971.53
2016-10-16T08:34:46.606Z,971.51
2016-10-16T08:35:46.571Z,971.54
2016-10-16T08:36:46.536Z,971.55
2016-10-16T08:37:46.500Z,971.52
2016-10-16T08:38:46.465Z,971.46
2016-10-16T08:39:46.426Z,971.42
2016-10-16T08:40:46.390Z,971.48
2016-10-16T08:41:46.356Z,971.46
2016-10-16T08:42:46.322Z,971.49
2016-10-16T08:43:46.285Z,971.46
2016-10-16T08:44:46.247Z,971.5
2016-10-16T08:45:46.211Z,971.47
2016-10-16T08:46:46.174Z,971.49
2016-10-16T08:47:46.140Z,971.49
2016-10-16T08:48:46.110Z,971.52
2016-10-16T08:49:46.068Z,971.52
2016-10-16T08:50:46.031Z,971.53
2016-10-16T08:51:45.996Z,971.53
2016-10-16T08:52:45.960Z,971.58
2016-10-16T08:53:45.932Z,971.6
2016-10-16T08:54:45.886Z,971.57
2016-10-16T08:55:45.853Z,971.58
2016-10-16T08:56:45.815Z,971.58
2016-10-16T08:57:45.779Z,971.55
2016-10-16T08:58:45.744Z,971.56
2016-10-16T08:59:45.708Z,971.58
2016-10-16T09:00:45.672Z,971.58
2016-10-16T09:01:45.636Z,971.59
2016-10-16T09:02:45.602Z,971.54
2016-10-16T09:03:45.564Z,971.59
2016-10-16T09:04:45.531Z,971.58
2016-10-16T09:05:45.493Z,971.6
2016-10-16T09:06:45.457Z,971.61
2016-10-16T09:07:45.422Z,971.6
2016-10-16T09:08:45.386Z,971.59
2016-10-16T09:09:45.348Z,971.63
2016-10-16T09:10:45.313Z,971.63
2016-10-16T09:11:45.278Z,971.62
2016-10-16T09:12:45.243Z,971.63
2016-10-16T09:13:45.206Z,971.63
2016-10-16T09:14:45.170Z,971.69
2016-10-16T09:15:45.134Z,971.67
2016-10-16T09:16:45.097Z,971.69
2016-10-16T09:17:45.063Z,971.69
2016-10-16T09:18:45.026Z,971.68
2016-10-16T09:19:44.997Z,971.7
2016-10-16T09:20:44.953Z,971.67
2016-10-16T09:21:44.920Z,971.7
2016-10-16T09:22:44.883Z,971.71
2016-10-16T09:23:44.845Z,971.71
2016-10-16T09:24:44.810Z,971.65
2016-10-16T09:25:44.775Z,971.7
2016-10-16T09:26:44.741Z,971.67
2016-10-16T09:27:44.703Z,971.72
2016-10-16T09:28:44.668Z,971.65
2016-10-16T09:29:44.632Z,971.68
2016-10-16T09:30:44.597Z,971.67
2016-10-16T09:31:44.562Z,971.7
2016-10-16T09:32:44.527Z,971.7
2016-10-16T09:33:44.491Z,971.7
2016-10-16T09:34:44.454Z,971.72
2016-10-16T09:35:44.418Z,971.68
2016-10-16T09:36:44.386Z,971.68
2016-10-16T09:37:44.348Z,971.66
2016-10-16T09:38:44.313Z,971.69
2016-10-16T09:39:44.276Z,971.68
2016-10-16T09:40:44.243Z,971.64
2016-10-16T09:41:44.206Z,971.63
2016-10-16T09:42:44.170Z,971.64
2016-10-16T09:43:44.135Z,971.64
2016-10-16T09:44:44.100Z,971.62
2016-10-16T09:45:44.067Z,971.6
2016-10-16T09:46:44.031Z,971.59
2016-10-16T09:47:43.994Z,971.53
2016-10-16T09:48:43.959Z,971.55
2016-10-16T09:49:43.933Z,971.54
2016-10-16T09:50:43.889Z,971.54
2016-10-16T09:51:43.855Z,971.55
2016-10-16T09:52:43.819Z,971.54
2016-10-16T09:53:43.787Z,971.52
2016-10-16T09:54:43.749Z,971.55
2016-10-16T09:55:43.715Z,971.53
2016-10-16T09:56:43.679Z,971.55
2016-10-16T09:57:43.644Z,971.5
2016-10-16T09:58:43.612Z,971.53
2016-10-16T09:59:43.578Z,971.55
2016-10-16T10:00:43.540Z,971.54
2016-10-16T10:01:43.508Z,971.52
2016-10-16T10:02:43.471Z,971.53
2016-10-16T10:03:43.437Z,971.5
2016-10-16T10:04:43.402Z,971.53
2016-10-16T10:05:43.367Z,971.52
2016-10-16T10:06:43.333Z,971.49
2016-10-16T10:07:43.298Z,971.44
2016-10-16T10:08:43.264Z,971.5
2016-10-16T10:09:43.229Z,971.48
2016-10-16T10:10:43.204Z,971.45
2016-10-16T10:11:43.160Z,971.44
2016-10-16T10:12:43.126Z,971.41
2016-10-16T10:13:43.094Z,971.49
2016-10-16T10:14:43.059Z,971.45
2016-10-16T10:15:43.023Z,971.44
2016-10-16T10:16:42.990Z,971.48
2016-10-16T10:17:42.958Z,971.44
2016-10-16T10:18:42.922Z,971.48
2016-10-16T10:19:42.889Z,971.5
2016-10-16T10:20:42.852Z,971.46
2016-10-16T10:21:42.817Z,971.49
2016-10-16T10:22:42.783Z,971.46
2016-10-16T10:23:42.750Z,971.47
2016-10-16T10:24:42.716Z,971.53
2016-10-16T10:25:42.680Z,971.52
2016-10-16T10:26:42.649Z,971.5
2016-10-16T10:27:42.614Z,971.49
2016-10-16T10:28:42.581Z,971.5
2016-10-16T10:29:42.559Z,971.52
2016-10-16T10:30:42.514Z,971.53
2016-10-16T10:31:42.479Z,971.53
2016-10-16T10:32:42.444Z,971.52
2016-10-16T10:33:42.410Z,971.56
2016-10-16T10:34:42.381Z,971.53
2016-10-16T10:35:42.343Z,971.56
2016-10-16T10:36:42.307Z,971.52
2016-10-16T10:37:42.274Z,971.53
2016-10-16T10:38:42.242Z,971.54
2016-10-16T10:39:42.208Z,971.56
2016-10-16T10:40:42.172Z,971.56
2016-10-16T10:41:42.139Z,971.54
2016-10-16T10:42:42.106Z,971.58
2016-10-16T10:43:42.070Z,971.56
2016-10-16T10:44:42.037Z,971.59
2016-10-16T10:45:42.003Z,971.6
2016-10-16T10:46:41.970Z,971.66
2016-10-16T10:47:41.936Z,971.67
2016-10-16T10:48:41.903Z,971.67
2016-10-16T10:49:41.872Z,971.67
2016-10-16T10:50:41.836Z,971.65
2016-10-16T10:51:41.801Z,971.73
2016-10-16T10:52:41.769Z,971.69
2016-10-16T10:53:41.734Z,971.66
2016-10-16T10:54:41.699Z,971.64
2016-10-16T10:55:41.668Z,971.63
2016-10-16T10:56:41.632Z,971.58
2016-10-16T10:57:41.600Z,971.61
2016-10-16T10:58:41.567Z,971.57
2016-10-16T10:59:41.531Z,971.49
2016-10-16T11:00:41.498Z,971.54
2016-10-16T11:01:41.466Z,971.53
2016-10-16T11:02:41.432Z,971.5
2016-10-16T11:03:41.397Z,971.47
2016-10-16T11:04:41.365Z,971.47
2016-10-16T11:05:41.330Z,971.51
2016-10-16T11:06:41.298Z,971.46
2016-10-16T11:07:41.266Z,971.4
2016-10-16T11:08:41.232Z,971.38
2016-10-16T11:09:41.197Z,971.4
2016-10-16T11:10:41.164Z,971.39
2016-10-16T11:11:41.131Z,971.38
2016-10-16T11:12:41.097Z,971.4
2016-10-16T11:13:41.064Z,971.42
2016-10-16T11:14:41.031Z,971.4
2016-10-16T11:15:41.002Z,971.35
2016-10-16T11:16:40.965Z,971.34
2016-10-16T11:17:40.933Z,971.33
2016-10-16T11:18:40.900Z,971.37
2016-10-16T11:19:40.869Z,971.34
2016-10-16T11:20:40.835Z,971.3
2016-10-16T11:21:40.801Z,971.32
2016-10-16T11:22:40.770Z,971.3
2016-10-16T11:23:40.735Z,971.29
2016-10-16T11:24:40.702Z,971.3
2016-10-16T11:25:40.670Z,971.28
2016-10-16T11:26:40.639Z,971.29
2016-10-16T11:27:40.604Z,971.29
2016-10-16T11:28:40.573Z,971.31
2016-10-16T11:29:40.540Z,971.26
2016-10-16T11:30:40.508Z,971.28
2016-10-16T11:31:40.476Z,971.33
2016-10-16T11:32:40.444Z,971.24
2016-10-16T11:33:40.412Z,971.27
2016-10-16T11:34:40.378Z,971.23
2016-10-16T11:35:40.346Z,971.24
2016-10-16T11:36:40.313Z,971.26
2016-10-16T11:37:40.282Z,971.22
2016-10-16T11:38:40.251Z,971.18
2016-10-16T11:39:40.217Z,971.19
2016-10-16T11:40:40.186Z,971.16
2016-10-16T11:41:40.153Z,971.12
2016-10-16T11:42:40.120Z,971.09
2016-10-16T11:43:40.088Z,971.09
2016-10-16T11:44:40.056Z,971.03
2016-10-16T11:45:40.023Z,971.02
2016-10-16T11:46:39.994Z,971.01
2016-10-16T11:47:39.961Z,971.04
2016-10-16T11:48:39.929Z,971.04
2016-10-16T11:49:39.896Z,971.04
2016-10-16T11:50:39.864Z,971
2016-10-16T11:51:39.832Z,970.99
2016-10-16T11:52:39.800Z,970.97
2016-10-16T11:53:39.767Z,970.97
2016-10-16T11:54:39.736Z,970.99
2016-10-16T11:55:39.704Z,971.04
2016-10-16T11:56:39.672Z,971.02
2016-10-16T11:57:39.640Z,971.04
2016-10-16T11:58:39.609Z,971.05
2016-10-16T11:59:39.578Z,970.99
2016-10-16T12:00:39.543Z,971.02
2016-10-16T12:01:39.512Z,970.98
2016-10-16T12:02:39.480Z,970.98
2016-10-16T12:03:39.450Z,971.02
2016-10-16T12:04:39.416Z,970.99
2016-10-16T12:05:39.385Z,971.01
2016-10-16T12:06:39.352Z,971.04
2016-10-16T12:07:39.320Z,971.02
2016-10-16T12:08:39.289Z,971.02
2016-10-16T12:09:39.257Z,971.01
2016-10-16T12:10:39.225Z,971.05
2016-10-16T12:11:39.192Z,971.02
2016-10-16T12:12:39.161Z,971.02
2016-10-16T12:13:39.130Z,971.04
2016-10-16T12:14:39.097Z,971.06
2016-10-16T12:15:39.064Z,971.05
2016-10-16T12:16:39.033Z,971.04
2016-10-16T12:17:39.004Z,971.04
2016-10-16T12:18:38.969Z,971.02
2016-10-16T12:19:38.939Z,970.96
2016-10-16T12:20:39.109Z,970.9
2016-10-16T12:21:38.877Z,970.88
2016-10-16T12:22:38.845Z,970.9
2016-10-16T12:23:38.816Z,970.87
2016-10-16T12:24:38.781Z,970.91
2016-10-16T12:25:38.750Z,970.91
2016-10-16T12:26:38.718Z,970.92
2016-10-16T12:27:38.687Z,970.91
2016-10-16T12:28:38.656Z,970.88
2016-10-16T12:29:38.624Z,970.89
2016-10-16T12:30:38.592Z,970.87